Weather History for Marysville, OH

Change the Weather History Date:

Tuesday, November 22, 2011

  Actual Average (KDLZ) Record (KDLZ)
Temperature  
Mean Temperature 48 °F -  
Max Temperature 56 °F 44 °F 67 °F (1979)
Min Temperature 41 °F 29 °F 9 °F (1964)
Degree Days  
Heating Degree Days 16    
Moisture  
Dew Point 45 °F    
Average Humidity 94    
Maximum Humidity 95    
Minimum Humidity 90    
Precipitation  
Precipitation 0.69 in - - ()
Sea Level Pressure  
Sea Level Pressure 30.00 in    
Wind  
Wind Speed 6 mph (ESE)    
Max Wind Speed 15 mph    
Max Gust Speed 21 mph    
Visibility 3 miles    
Events      
Averages and records for this station are not official NWS values.
T = Trace of Precipitation, MM = Missing Value Source: NWS Daily Summary

Daily Weather History Graph

Daily Weather History Graph

Search for Another Location

Airport:

Trip Planner

Search our weather history database for the weather conditions in past years. The results will help you decide how hot, cold, wet, or windy it might be!

Date:

Astronomy

Nov. 22, 2011 Rise Set
Actual Time 7:26 AM EST 5:11 PM EST
Civil Twilight 6:57 AM EST 5:41 PM EST
Nautical Twilight 6:23 AM EST 6:14 PM EST
Astronomical Twilight 5:51 AM EST 6:47 PM EST
Moon 4:15 AM EST (11/22) 3:10 PM EST (11/22)
Length of Visible Light 10h 44m
Length of Day
9h 45m
Waning Crescent, 9% of the Moon is Illuminated
Nov 22
Waning Crescent
Nov 25
New
Dec 2
First Quarter
Dec 10
Full
Dec 17
Last Quarter

Hourly Weather History & Observations

Time (EST) Temp. Windchill Dew Point Humidity Pressure Visibility Wind Dir Wind Speed Gust Speed Precip Events Conditions
12:13 AM 42.8 °F 41.1 °F 40.1 °F 90% 30.22 in 5.0 mi NE 3.5 mph - N/A   Overcast
12:33 AM 42.8 °F 40.1 °F 40.1 °F 90% 30.22 in 4.0 mi NE 4.6 mph - N/A   Overcast
12:53 AM 42.4 °F 38.1 °F 39.9 °F 91% 30.21 in 3.0 mi NE 6.9 mph - 0.01 in   Overcast
12:59 AM 42.3 °F 38.6 °F 39.9 °F 91% 30.21 in 2.5 mi ENE 5.8 mph - 0.01 in   Overcast
1:14 AM 42.3 °F 37.9 °F 39.7 °F 91% 30.20 in 4.0 mi ENE 6.9 mph - N/A   Overcast
1:33 AM 42.1 °F 39.2 °F 40.1 °F 93% 30.21 in 4.0 mi ENE 4.6 mph - N/A   Overcast
2:14 AM 41.9 °F 38.2 °F 40.1 °F 93% 30.20 in 3.0 mi ENE 5.8 mph - N/A   Overcast
2:33 AM 41.9 °F 37.5 °F 40.1 °F 93% 30.19 in 3.0 mi East 6.9 mph - N/A   Overcast
2:53 AM 41.9 °F 37.5 °F 40.3 °F 94% 30.20 in 3.0 mi ENE 6.9 mph - N/A   Overcast
3:14 AM 41.9 °F 36.9 °F 40.3 °F 94% 30.19 in 2.5 mi ENE 8.1 mph - N/A   Overcast
3:33 AM 41.9 °F 37.5 °F 40.3 °F 94% 30.19 in 2.0 mi ENE 6.9 mph - N/A   Overcast
3:53 AM 41.9 °F 37.5 °F 40.5 °F 95% 30.17 in 2.5 mi ENE 6.9 mph - N/A   Overcast
4:14 AM 41.9 °F 37.5 °F 40.5 °F 95% 30.16 in 3.0 mi ENE 6.9 mph - N/A   Overcast
4:34 AM 41.9 °F 38.2 °F 40.5 °F 95% 30.16 in 2.5 mi East 5.8 mph - N/A   Overcast
4:53 AM 42.1 °F 38.4 °F 40.5 °F 94% 30.15 in 3.0 mi ENE 5.8 mph - N/A   Overcast
5:14 AM 42.3 °F 37.9 °F 40.6 °F 94% 30.16 in 2.5 mi ENE 6.9 mph - N/A   Overcast
5:33 AM 42.3 °F 39.4 °F 40.6 °F 94% 30.16 in 2.5 mi ENE 4.6 mph - N/A   Overcast
5:53 AM 42.3 °F 39.4 °F 40.6 °F 94% 30.16 in 2.5 mi East 4.6 mph - N/A   Overcast
6:14 AM 42.3 °F 39.4 °F 40.6 °F 94% 30.14 in 2.5 mi ENE 4.6 mph - N/A   Overcast
6:53 AM 42.3 °F 37.9 °F 41.0 °F 95% 30.13 in 2.0 mi East 6.9 mph - 0.04 in   Overcast
7:14 AM 42.4 °F 38.8 °F 41.0 °F 95% 30.12 in 3.0 mi East 5.8 mph - N/A   Overcast
7:33 AM 42.8 °F 38.6 °F 41.4 °F 95% 30.11 in 2.5 mi East 6.9 mph - N/A   Overcast
7:53 AM 43.2 °F 37.9 °F 41.5 °F 94% 30.10 in 1.8 mi East 9.2 mph - N/A   Overcast
8:14 AM 43.3 °F 38.1 °F 41.7 °F 94% 30.10 in 1.5 mi East 9.2 mph - N/A   Overcast
8:34 AM 43.7 °F 38.6 °F 42.3 °F 95% 30.08 in 1.8 mi East 9.2 mph - N/A   Overcast
8:53 AM 44.2 °F 41.0 °F 42.8 °F 95% 30.09 in 2.5 mi ESE 5.8 mph - N/A   Overcast
9:14 AM 44.4 °F 42.0 °F 42.8 °F 94% 30.09 in 2.0 mi ESE 4.6 mph - N/A   Overcast
9:34 AM 44.4 °F 40.0 °F 42.8 °F 94% 30.07 in 1.2 mi ESE 8.1 mph - 0.03 in   Overcast
9:53 AM 44.8 °F 40.4 °F 43.3 °F 95% 30.06 in 1.5 mi East 8.1 mph - 0.05 in   Overcast
9:58 AM 45.0 °F 42.6 °F 43.7 °F 95% 30.06 in 1.2 mi SE 4.6 mph - 0.05 in   Overcast
10:14 AM 45.0 °F 41.2 °F 43.7 °F 95% 30.05 in 1.0 mi ESE 6.9 mph - 0.04 in   Overcast
10:33 AM 45.5 °F 41.8 °F 43.9 °F 94% 30.03 in 1.2 mi ESE 6.9 mph - 0.07 in   Overcast
10:53 AM 46.0 °F 41.9 °F 44.6 °F 95% 30.03 in 1.5 mi ESE 8.1 mph - 0.10 in   Overcast
10:59 AM 46.2 °F 42.2 °F 44.8 °F 95% 30.02 in 1.5 mi East 8.1 mph - 0.11 in   Overcast
11:14 AM 46.4 °F 45.2 °F 44.8 °F 94% 30.02 in 1.5 mi ESE 3.5 mph - 0.03 in   Overcast
11:33 AM 46.4 °F 44.3 °F 44.8 °F 94% 30.01 in 1.0 mi SE 4.6 mph - 0.13 in   Overcast
11:53 AM 46.6 °F - 45.1 °F 95% 29.98 in 1.8 mi ESE 3.5 mph - 0.21 in   Overcast
11:59 AM 46.8 °F - 45.5 °F 95% 29.97 in 1.8 mi ESE 4.6 mph - 0.22 in   Overcast
12:33 PM 46.9 °F - 45.5 °F 95% 29.93 in 2.0 mi East 4.6 mph - 0.04 in   Overcast
12:59 PM 47.3 °F - 45.5 °F 93% 29.90 in 3.0 mi ESE 6.9 mph - 0.07 in   Overcast
1:14 PM 47.3 °F - 45.7 °F 94% 29.86 in 2.5 mi ESE 8.1 mph - 0.02 in   Overcast
1:34 PM 47.5 °F - 45.9 °F 94% 29.85 in 2.0 mi SE 5.8 mph - 0.05 in   Overcast
1:53 PM 47.8 °F - 46.4 °F 95% 29.84 in 2.0 mi SSE 4.6 mph - 0.07 in   Overcast
1:59 PM 47.8 °F - 46.4 °F 95% 29.84 in 1.8 mi SE 5.8 mph - 0.08 in   Overcast
2:33 PM 48.9 °F - 47.3 °F 94% 29.80 in 1.2 mi ESE 5.8 mph - 0.07 in   Overcast
2:53 PM 49.3 °F - 47.7 °F 94% 29.79 in 2.5 mi SSE 4.6 mph - 0.10 in   Overcast
2:59 PM 49.5 °F - 47.8 °F 94% 29.79 in 10.0 mi South 6.9 mph - 0.10 in   Overcast
3:14 PM 50.4 °F - 48.7 °F 94% 29.77 in 10.0 mi SE 5.8 mph - N/A   Overcast
3:33 PM 51.1 °F - 49.5 °F 94% 29.75 in 7.0 mi SSE 8.1 mph - N/A   Overcast
3:53 PM 51.4 °F - 50.0 °F 95% 29.76 in 4.0 mi South 9.2 mph - N/A   Overcast
4:33 PM 52.3 °F - 50.9 °F 95% 29.75 in 3.0 mi South 11.5 mph - N/A   Overcast
4:53 PM 53.4 °F - 51.8 °F 94% 29.74 in 5.0 mi South 8.1 mph - N/A   Overcast
5:14 PM 54.7 °F - 53.2 °F 95% 29.72 in 7.0 mi South 9.2 mph - N/A   Overcast
5:33 PM 55.4 °F - 53.8 °F 94% 29.72 in 5.0 mi SSW 8.1 mph - N/A   Overcast
5:59 PM 56.3 °F - 54.5 °F 94% 29.70 in 7.0 mi South 11.5 mph 16.1 mph 0.01 in   Overcast
6:14 PM 56.5 °F - 54.7 °F 94% 29.71 in 7.0 mi SSW 12.7 mph - N/A   Overcast
6:33 PM 56.3 °F - 54.5 °F 94% 29.69 in 7.0 mi South 11.5 mph - N/A   Overcast
6:54 PM 56.5 °F - 54.7 °F 94% 29.68 in 7.0 mi South 13.8 mph 19.6 mph N/A   Overcast
7:13 PM 56.7 °F - 54.7 °F 93% 29.67 in 7.0 mi South 15.0 mph 20.7 mph N/A   Overcast
7:33 PM 56.8 °F - 54.9 °F 93% 29.66 in 7.0 mi SSW 12.7 mph 18.4 mph N/A   Mostly Cloudy
7:54 PM 57.4 °F - 55.2 °F 92% 29.65 in 10.0 mi SSW 15.0 mph - N/A   Overcast
8:13 PM 57.7 °F - 55.2 °F 91% 29.65 in 10.0 mi SSW 12.7 mph 20.7 mph N/A   Overcast
8:33 PM 57.6 °F - 54.9 °F 91% 29.64 in 10.0 mi SSW 15.0 mph 20.7 mph N/A   Overcast
8:54 PM 58.3 °F - 55.4 °F 90% 29.64 in 10.0 mi SSW 15.0 mph 20.7 mph N/A   Overcast
9:13 PM 58.8 °F - 55.4 °F 88% 29.64 in 10.0 mi SW 15.0 mph 21.9 mph N/A   Overcast
9:54 PM 58.8 °F - 53.6 °F 83% 29.66 in 10.0 mi WSW 24.2 mph 28.8 mph N/A   Overcast
10:13 PM 54.9 °F - 49.8 °F 83% 29.68 in 10.0 mi West 34.5 mph 42.6 mph N/A   Overcast
10:33 PM 52.2 °F - 47.5 °F 84% 29.68 in 10.0 mi West 24.2 mph 34.5 mph N/A   Overcast
10:54 PM 49.6 °F - 44.4 °F 82% 29.71 in 10.0 mi West 31.1 mph 38.0 mph N/A   Overcast
11:13 PM 47.1 °F - 43.3 °F 87% 29.72 in 10.0 mi West 23.0 mph 31.1 mph N/A   Overcast
11:33 PM 45.9 °F 37.2 °F 42.8 °F 89% 29.74 in 10.0 mi West 25.3 mph 33.4 mph N/A   Overcast
11:54 PM 43.0 °F 34.2 °F 40.3 °F 90% 29.76 in 5.0 mi WNW 20.7 mph 28.8 mph N/A   Overcast